BIRK

Reykjavik Airport

Reykjavik, Iceland
METAR BIRK 181900Z 12016KT 9999 -RA FEW023 SCT049 OVC064 04/00 Q1005
Observed Flight Rules
Jan-18 @ 19:00 UTC (an hour ago) Visual Flight Rules
Wind Visibility Clouds Conditions
120° at 16 knots 10,000+ meters
  • Few at 2,300' AGL
  • Scattered at 4,900' AGL
  • Overcast at 6,400' AGL
  • Light Rain
Temperatures Readings
Current 4°C / 39°F
Dewpoint 0°C / 32°F
Humidity 75%
Altimeter 29.68" Hg
Pressure 1004.92 hPa
Elevation 61
METAR BIRK 181900Z 12016KT 9999 -RA FEW023 SCT049 OVC064 04/00 Q1005
Observed Flight Rules
Jan-18 @ 19:00 UTC
(an hour ago)
VFR
Wind Visibility
120° at 16 knots 10,000+ meters
Clouds
  • Few at 2,300' AGL
  • Scattered at 4,900' AGL
  • Overcast at 6,400' AGL
Conditions
  • Light Rain
Temperature Dewpoint
4°C / 39°F 0°C / 32°F
Humidity Altimeter Pressure
75% 29.68" Hg 1004.92 hPa